sensor_id;sensor_type;location;lat;lon;timestamp;P1;durP1;ratioP1;P2;durP2;ratioP2
32790;SDS011;19143;59.322;14.502;2023-04-01T00:00:55;1.07;;;1.07;;
32790;SDS011;19143;59.322;14.502;2023-04-01T00:03:22;8.53;;;1.03;;
32790;SDS011;19143;59.322;14.502;2023-04-01T00:05:50;0.93;;;0.93;;
32790;SDS011;19143;59.322;14.502;2023-04-01T00:08:17;1.57;;;1.20;;
32790;SDS011;19143;59.322;14.502;2023-04-01T00:10:43;1.03;;;1.03;;
32790;SDS011;19143;59.322;14.502;2023-04-01T00:13:10;1.43;;;1.40;;
32790;SDS011;19143;59.322;14.502;2023-04-01T00:15:37;4.80;;;1.10;;
32790;SDS011;19143;59.322;14.502;2023-04-01T00:18:05;1.03;;;0.90;;
32790;SDS011;19143;59.322;14.502;2023-04-01T00:20:32;0.90;;;0.90;;
32790;SDS011;19143;59.322;14.502;2023-04-01T00:22:58;1.30;;;1.20;;
32790;SDS011;19143;59.322;14.502;2023-04-01T00:25:25;0.90;;;0.90;;
32790;SDS011;19143;59.322;14.502;2023-04-01T00:27:52;2.13;;;1.83;;
32790;SDS011;19143;59.322;14.502;2023-04-01T00:30:19;1.70;;;1.53;;
32790;SDS011;19143;59.322;14.502;2023-04-01T00:32:45;1.00;;;1.00;;
32790;SDS011;19143;59.322;14.502;2023-04-01T00:35:13;0.80;;;0.80;;
32790;SDS011;19143;59.322;14.502;2023-04-01T00:37:40;1.03;;;1.03;;
32790;SDS011;19143;59.322;14.502;2023-04-01T00:40:07;0.97;;;0.97;;
32790;SDS011;19143;59.322;14.502;2023-04-01T00:42:34;1.27;;;1.17;;
32790;SDS011;19143;59.322;14.502;2023-04-01T00:47:49;7.07;;;1.00;;
32790;SDS011;19143;59.322;14.502;2023-04-01T00:50:17;0.93;;;0.93;;
32790;SDS011;19143;59.322;14.502;2023-04-01T00:52:43;0.80;;;0.80;;
32790;SDS011;19143;59.322;14.502;2023-04-01T00:55:11;1.23;;;1.20;;
32790;SDS011;19143;59.322;14.502;2023-04-01T00:57:39;1.47;;;1.20;;
32790;SDS011;19143;59.322;14.502;2023-04-01T01:00:09;1.10;;;1.10;;
32790;SDS011;19143;59.322;14.502;2023-04-01T01:02:37;2.93;;;0.73;;
32790;SDS011;19143;59.322;14.502;2023-04-01T01:05:04;2.47;;;1.13;;
32790;SDS011;19143;59.322;14.502;2023-04-01T01:07:33;1.03;;;1.03;;
32790;SDS011;19143;59.322;14.502;2023-04-01T01:10:03;1.00;;;1.00;;
32790;SDS011;19143;59.322;14.502;2023-04-01T01:12:33;2.17;;;1.40;;
32790;SDS011;19143;59.322;14.502;2023-04-01T01:15:03;1.57;;;1.47;;
32790;SDS011;19143;59.322;14.502;2023-04-01T01:17:35;1.40;;;1.30;;
32790;SDS011;19143;59.322;14.502;2023-04-01T01:22:54;1.70;;;1.10;;
32790;SDS011;19143;59.322;14.502;2023-04-01T01:25:25;2.33;;;1.57;;
32790;SDS011;19143;59.322;14.502;2023-04-01T01:27:57;2.10;;;1.40;;
32790;SDS011;19143;59.322;14.502;2023-04-01T01:30:33;1.10;;;1.10;;
32790;SDS011;19143;59.322;14.502;2023-04-01T01:33:06;1.63;;;1.20;;
32790;SDS011;19143;59.322;14.502;2023-04-01T01:35:38;1.10;;;0.97;;
32790;SDS011;19143;59.322;14.502;2023-04-01T01:38:07;0.93;;;0.93;;
32790;SDS011;19143;59.322;14.502;2023-04-01T01:40:35;1.07;;;1.07;;
32790;SDS011;19143;59.322;14.502;2023-04-01T01:43:11;1.20;;;1.20;;
32790;SDS011;19143;59.322;14.502;2023-04-01T01:45:40;0.97;;;0.97;;
32790;SDS011;19143;59.322;14.502;2023-04-01T01:48:09;1.17;;;1.17;;
32790;SDS011;19143;59.322;14.502;2023-04-01T01:50:38;0.90;;;0.90;;
32790;SDS011;19143;59.322;14.502;2023-04-01T01:53:07;0.80;;;0.80;;
32790;SDS011;19143;59.322;14.502;2023-04-01T01:55:36;2.13;;;1.10;;
32790;SDS011;19143;59.322;14.502;2023-04-01T01:58:04;1.70;;;1.20;;
32790;SDS011;19143;59.322;14.502;2023-04-01T02:00:32;2.13;;;1.50;;
32790;SDS011;19143;59.322;14.502;2023-04-01T02:03:00;1.10;;;1.10;;
32790;SDS011;19143;59.322;14.502;2023-04-01T02:05:27;0.90;;;0.90;;
32790;SDS011;19143;59.322;14.502;2023-04-01T02:07:57;1.20;;;1.20;;
32790;SDS011;19143;59.322;14.502;2023-04-01T02:10:26;1.50;;;1.40;;
32790;SDS011;19143;59.322;14.502;2023-04-01T02:12:54;3.17;;;1.10;;
32790;SDS011;19143;59.322;14.502;2023-04-01T02:15:23;1.10;;;1.10;;
32790;SDS011;19143;59.322;14.502;2023-04-01T02:17:51;1.40;;;1.13;;
32790;SDS011;19143;59.322;14.502;2023-04-01T02:20:18;1.20;;;1.10;;
32790;SDS011;19143;59.322;14.502;2023-04-01T02:22:47;1.20;;;1.20;;
32790;SDS011;19143;59.322;14.502;2023-04-01T02:25:17;1.40;;;1.10;;
32790;SDS011;19143;59.322;14.502;2023-04-01T02:27:44;0.80;;;0.80;;
32790;SDS011;19143;59.322;14.502;2023-04-01T02:30:12;1.33;;;1.30;;
32790;SDS011;19143;59.322;14.502;2023-04-01T02:32:38;0.97;;;0.97;;
32790;SDS011;19143;59.322;14.502;2023-04-01T02:35:06;1.50;;;1.43;;
32790;SDS011;19143;59.322;14.502;2023-04-01T02:37:33;0.97;;;0.97;;
32790;SDS011;19143;59.322;14.502;2023-04-01T02:40:00;0.90;;;0.90;;
32790;SDS011;19143;59.322;14.502;2023-04-01T02:42:28;0.90;;;0.90;;
32790;SDS011;19143;59.322;14.502;2023-04-01T02:44:54;1.23;;;1.13;;
32790;SDS011;19143;59.322;14.502;2023-04-01T02:47:21;1.10;;;1.10;;
32790;SDS011;19143;59.322;14.502;2023-04-01T02:49:48;2.77;;;1.40;;
32790;SDS011;19143;59.322;14.502;2023-04-01T02:52:14;0.90;;;0.90;;
32790;SDS011;19143;59.322;14.502;2023-04-01T02:54:41;1.13;;;1.10;;
32790;SDS011;19143;59.322;14.502;2023-04-01T02:57:07;1.10;;;1.10;;
32790;SDS011;19143;59.322;14.502;2023-04-01T02:59:36;1.20;;;1.20;;
32790;SDS011;19143;59.322;14.502;2023-04-01T03:02:02;1.13;;;1.13;;
32790;SDS011;19143;59.322;14.502;2023-04-01T03:04:29;1.00;;;1.00;;
32790;SDS011;19143;59.322;14.502;2023-04-01T03:06:56;6.17;;;1.10;;
32790;SDS011;19143;59.322;14.502;2023-04-01T03:09:22;1.00;;;1.00;;
32790;SDS011;19143;59.322;14.502;2023-04-01T03:11:49;1.03;;;1.00;;
32790;SDS011;19143;59.322;14.502;2023-04-01T03:14:16;1.20;;;1.20;;
32790;SDS011;19143;59.322;14.502;2023-04-01T03:16:44;11.03;;;1.17;;
32790;SDS011;19143;59.322;14.502;2023-04-01T03:19:11;1.20;;;1.07;;
32790;SDS011;19143;59.322;14.502;2023-04-01T03:21:37;0.97;;;0.97;;
32790;SDS011;19143;59.322;14.502;2023-04-01T03:24:04;1.40;;;1.30;;
32790;SDS011;19143;59.322;14.502;2023-04-01T03:26:31;1.20;;;1.10;;
32790;SDS011;19143;59.322;14.502;2023-04-01T03:28:58;1.33;;;1.30;;
32790;SDS011;19143;59.322;14.502;2023-04-01T03:31:24;1.00;;;1.00;;
32790;SDS011;19143;59.322;14.502;2023-04-01T03:33:52;1.50;;;1.33;;
32790;SDS011;19143;59.322;14.502;2023-04-01T03:36:19;0.90;;;0.90;;
32790;SDS011;19143;59.322;14.502;2023-04-01T03:38:46;1.63;;;1.50;;
32790;SDS011;19143;59.322;14.502;2023-04-01T03:41:13;0.97;;;0.97;;
32790;SDS011;19143;59.322;14.502;2023-04-01T03:43:39;4.43;;;1.23;;
32790;SDS011;19143;59.322;14.502;2023-04-01T03:46:06;0.77;;;0.77;;
32790;SDS011;19143;59.322;14.502;2023-04-01T03:48:32;1.10;;;1.10;;
32790;SDS011;19143;59.322;14.502;2023-04-01T03:51:01;1.13;;;1.10;;
32790;SDS011;19143;59.322;14.502;2023-04-01T03:53:27;1.20;;;1.20;;
32790;SDS011;19143;59.322;14.502;2023-04-01T03:55:54;1.20;;;1.10;;
32790;SDS011;19143;59.322;14.502;2023-04-01T03:58:20;1.20;;;1.07;;
32790;SDS011;19143;59.322;14.502;2023-04-01T04:00:47;1.13;;;1.13;;
32790;SDS011;19143;59.322;14.502;2023-04-01T04:03:13;1.53;;;1.07;;
32790;SDS011;19143;59.322;14.502;2023-04-01T04:05:45;1.00;;;1.00;;
32790;SDS011;19143;59.322;14.502;2023-04-01T04:08:13;0.80;;;0.80;;
32790;SDS011;19143;59.322;14.502;2023-04-01T04:10:40;1.00;;;1.00;;
32790;SDS011;19143;59.322;14.502;2023-04-01T04:13:07;1.00;;;1.00;;
32790;SDS011;19143;59.322;14.502;2023-04-01T04:15:33;1.10;;;1.10;;
32790;SDS011;19143;59.322;14.502;2023-04-01T04:18:00;1.27;;;1.17;;
32790;SDS011;19143;59.322;14.502;2023-04-01T04:20:26;1.20;;;1.20;;
32790;SDS011;19143;59.322;14.502;2023-04-01T04:22:53;2.57;;;1.10;;
32790;SDS011;19143;59.322;14.502;2023-04-01T04:25:21;1.07;;;1.07;;
32790;SDS011;19143;59.322;14.502;2023-04-01T04:27:48;1.07;;;1.07;;
32790;SDS011;19143;59.322;14.502;2023-04-01T04:30:15;0.83;;;0.83;;
32790;SDS011;19143;59.322;14.502;2023-04-01T04:32:41;1.00;;;1.00;;
32790;SDS011;19143;59.322;14.502;2023-04-01T04:35:08;2.23;;;1.57;;
32790;SDS011;19143;59.322;14.502;2023-04-01T04:37:35;1.87;;;1.50;;
32790;SDS011;19143;59.322;14.502;2023-04-01T04:40:01;1.90;;;1.70;;
32790;SDS011;19143;59.322;14.502;2023-04-01T04:42:29;1.47;;;1.37;;
32790;SDS011;19143;59.322;14.502;2023-04-01T04:44:56;1.40;;;1.30;;
32790;SDS011;19143;59.322;14.502;2023-04-01T04:47:22;1.70;;;1.40;;
32790;SDS011;19143;59.322;14.502;2023-04-01T04:49:49;0.80;;;0.80;;
32790;SDS011;19143;59.322;14.502;2023-04-01T04:52:15;4.30;;;0.90;;
32790;SDS011;19143;59.322;14.502;2023-04-01T04:54:42;0.77;;;0.77;;
32790;SDS011;19143;59.322;14.502;2023-04-01T04:57:09;1.30;;;1.20;;
32790;SDS011;19143;59.322;14.502;2023-04-01T04:59:37;0.90;;;0.90;;
32790;SDS011;19143;59.322;14.502;2023-04-01T05:02:03;1.87;;;1.23;;
32790;SDS011;19143;59.322;14.502;2023-04-01T05:04:33;1.80;;;1.63;;
32790;SDS011;19143;59.322;14.502;2023-04-01T05:07:00;1.10;;;1.10;;
32790;SDS011;19143;59.322;14.502;2023-04-01T05:09:27;1.67;;;0.90;;
32790;SDS011;19143;59.322;14.502;2023-04-01T05:11:53;1.70;;;1.30;;
32790;SDS011;19143;59.322;14.502;2023-04-01T05:14:20;4.33;;;0.97;;
32790;SDS011;19143;59.322;14.502;2023-04-01T05:16:48;1.10;;;1.10;;
32790;SDS011;19143;59.322;14.502;2023-04-01T05:19:15;2.77;;;1.37;;
32790;SDS011;19143;59.322;14.502;2023-04-01T05:21:42;1.53;;;1.23;;
32790;SDS011;19143;59.322;14.502;2023-04-01T05:24:09;1.00;;;1.00;;
32790;SDS011;19143;59.322;14.502;2023-04-01T05:26:36;1.27;;;1.20;;
32790;SDS011;19143;59.322;14.502;2023-04-01T05:29:03;1.57;;;1.17;;
32790;SDS011;19143;59.322;14.502;2023-04-01T05:31:30;1.40;;;1.30;;
32790;SDS011;19143;59.322;14.502;2023-04-01T05:33:58;1.20;;;1.20;;
32790;SDS011;19143;59.322;14.502;2023-04-01T05:36:25;1.10;;;1.10;;
32790;SDS011;19143;59.322;14.502;2023-04-01T05:38:54;1.07;;;1.07;;
32790;SDS011;19143;59.322;14.502;2023-04-01T05:41:21;1.80;;;1.37;;
32790;SDS011;19143;59.322;14.502;2023-04-01T05:43:47;1.63;;;1.53;;
32790;SDS011;19143;59.322;14.502;2023-04-01T05:46:14;1.57;;;1.10;;
32790;SDS011;19143;59.322;14.502;2023-04-01T05:48:41;1.53;;;1.20;;
32790;SDS011;19143;59.322;14.502;2023-04-01T05:51:13;2.10;;;1.57;;
32790;SDS011;19143;59.322;14.502;2023-04-01T05:53:39;1.13;;;1.13;;
32790;SDS011;19143;59.322;14.502;2023-04-01T05:56:06;1.37;;;1.27;;
32790;SDS011;19143;59.322;14.502;2023-04-01T05:58:34;1.60;;;1.00;;
32790;SDS011;19143;59.322;14.502;2023-04-01T06:01:01;1.07;;;1.07;;
32790;SDS011;19143;59.322;14.502;2023-04-01T06:03:28;0.90;;;0.90;;
32790;SDS011;19143;59.322;14.502;2023-04-01T06:05:55;1.53;;;1.37;;
32790;SDS011;19143;59.322;14.502;2023-04-01T06:08:26;4.90;;;1.20;;
32790;SDS011;19143;59.322;14.502;2023-04-01T06:10:56;1.70;;;1.00;;
32790;SDS011;19143;59.322;14.502;2023-04-01T06:13:28;1.40;;;1.30;;
32790;SDS011;19143;59.322;14.502;2023-04-01T06:15:59;2.57;;;0.97;;
32790;SDS011;19143;59.322;14.502;2023-04-01T06:18:38;1.43;;;1.13;;
32790;SDS011;19143;59.322;14.502;2023-04-01T06:21:09;7.63;;;0.90;;
32790;SDS011;19143;59.322;14.502;2023-04-01T06:23:47;2.43;;;1.10;;
32790;SDS011;19143;59.322;14.502;2023-04-01T06:29:16;1.77;;;0.80;;
32790;SDS011;19143;59.322;14.502;2023-04-01T06:31:50;1.10;;;1.10;;
32790;SDS011;19143;59.322;14.502;2023-04-01T06:34:23;2.43;;;0.90;;
32790;SDS011;19143;59.322;14.502;2023-04-01T06:37:01;2.83;;;1.20;;
32790;SDS011;19143;59.322;14.502;2023-04-01T06:39:56;1.17;;;1.10;;
32790;SDS011;19143;59.322;14.502;2023-04-01T06:42:37;1.20;;;1.10;;
32790;SDS011;19143;59.322;14.502;2023-04-01T06:45:10;3.60;;;1.07;;
32790;SDS011;19143;59.322;14.502;2023-04-01T06:47:52;0.90;;;0.80;;
32790;SDS011;19143;59.322;14.502;2023-04-01T06:50:22;1.03;;;0.80;;
32790;SDS011;19143;59.322;14.502;2023-04-01T06:52:50;10.20;;;0.97;;
32790;SDS011;19143;59.322;14.502;2023-04-01T06:55:26;0.77;;;0.77;;
32790;SDS011;19143;59.322;14.502;2023-04-01T06:57:54;4.37;;;0.77;;
32790;SDS011;19143;59.322;14.502;2023-04-01T07:00:29;4.97;;;0.80;;
32790;SDS011;19143;59.322;14.502;2023-04-01T07:02:59;3.80;;;0.60;;
32790;SDS011;19143;59.322;14.502;2023-04-01T07:05:30;0.90;;;0.90;;
32790;SDS011;19143;59.322;14.502;2023-04-01T07:07:57;0.93;;;0.93;;
32790;SDS011;19143;59.322;14.502;2023-04-01T07:10:30;1.07;;;0.97;;
32790;SDS011;19143;59.322;14.502;2023-04-01T07:12:58;0.73;;;0.73;;
32790;SDS011;19143;59.322;14.502;2023-04-01T07:15:28;1.37;;;1.10;;
32790;SDS011;19143;59.322;14.502;2023-04-01T07:17:57;0.93;;;0.93;;
32790;SDS011;19143;59.322;14.502;2023-04-01T07:20:25;0.97;;;0.97;;
32790;SDS011;19143;59.322;14.502;2023-04-01T07:22:56;0.83;;;0.80;;
32790;SDS011;19143;59.322;14.502;2023-04-01T07:25:25;2.50;;;0.93;;
32790;SDS011;19143;59.322;14.502;2023-04-01T07:27:54;6.07;;;1.17;;
32790;SDS011;19143;59.322;14.502;2023-04-01T07:30:23;2.37;;;1.60;;
32790;SDS011;19143;59.322;14.502;2023-04-01T07:32:51;2.40;;;1.10;;
32790;SDS011;19143;59.322;14.502;2023-04-01T07:35:22;2.13;;;1.17;;
32790;SDS011;19143;59.322;14.502;2023-04-01T07:37:54;3.10;;;1.83;;
32790;SDS011;19143;59.322;14.502;2023-04-01T07:40:25;2.23;;;1.10;;
32790;SDS011;19143;59.322;14.502;2023-04-01T07:43:00;1.77;;;1.03;;
32790;SDS011;19143;59.322;14.502;2023-04-01T07:45:31;1.07;;;1.00;;
32790;SDS011;19143;59.322;14.502;2023-04-01T07:48:10;1.57;;;0.90;;
32790;SDS011;19143;59.322;14.502;2023-04-01T07:50:41;4.40;;;1.00;;
32790;SDS011;19143;59.322;14.502;2023-04-01T07:53:13;1.20;;;1.10;;
32790;SDS011;19143;59.322;14.502;2023-04-01T07:55:43;1.87;;;0.90;;
32790;SDS011;19143;59.322;14.502;2023-04-01T07:58:14;2.70;;;1.40;;
32790;SDS011;19143;59.322;14.502;2023-04-01T08:00:47;3.53;;;1.67;;
32790;SDS011;19143;59.322;14.502;2023-04-01T08:03:21;0.93;;;0.90;;
32790;SDS011;19143;59.322;14.502;2023-04-01T08:05:53;0.90;;;0.90;;
32790;SDS011;19143;59.322;14.502;2023-04-01T08:08:24;0.90;;;0.90;;
32790;SDS011;19143;59.322;14.502;2023-04-01T08:10:54;1.47;;;0.90;;
32790;SDS011;19143;59.322;14.502;2023-04-01T08:13:27;2.50;;;0.80;;
32790;SDS011;19143;59.322;14.502;2023-04-01T08:15:57;4.60;;;0.80;;
32790;SDS011;19143;59.322;14.502;2023-04-01T08:18:31;0.50;;;0.50;;
32790;SDS011;19143;59.322;14.502;2023-04-01T08:21:00;0.70;;;0.70;;
32790;SDS011;19143;59.322;14.502;2023-04-01T08:23:28;1.83;;;0.60;;
32790;SDS011;19143;59.322;14.502;2023-04-01T08:26:00;0.73;;;0.60;;
32790;SDS011;19143;59.322;14.502;2023-04-01T08:28:30;0.60;;;0.60;;
32790;SDS011;19143;59.322;14.502;2023-04-01T08:31:00;1.13;;;0.73;;
32790;SDS011;19143;59.322;14.502;2023-04-01T08:33:29;0.50;;;0.50;;
32790;SDS011;19143;59.322;14.502;2023-04-01T08:35:58;0.70;;;0.70;;
32790;SDS011;19143;59.322;14.502;2023-04-01T08:38:49;5.00;;;1.00;;
32790;SDS011;19143;59.322;14.502;2023-04-01T08:41:34;3.70;;;1.27;;
32790;SDS011;19143;59.322;14.502;2023-04-01T08:46:56;1.00;;;1.00;;
32790;SDS011;19143;59.322;14.502;2023-04-01T08:49:32;1.70;;;0.80;;
32790;SDS011;19143;59.322;14.502;2023-04-01T08:55:04;1.20;;;1.20;;
32790;SDS011;19143;59.322;14.502;2023-04-01T08:57:42;1.53;;;0.90;;
32790;SDS011;19143;59.322;14.502;2023-04-01T09:00:15;1.10;;;0.80;;
32790;SDS011;19143;59.322;14.502;2023-04-01T09:03:02;1.50;;;1.00;;
32790;SDS011;19143;59.322;14.502;2023-04-01T09:05:46;0.80;;;0.80;;
32790;SDS011;19143;59.322;14.502;2023-04-01T09:08:17;1.47;;;0.80;;
32790;SDS011;19143;59.322;14.502;2023-04-01T09:10:54;0.50;;;0.50;;
32790;SDS011;19143;59.322;14.502;2023-04-01T09:13:29;4.90;;;0.60;;
32790;SDS011;19143;59.322;14.502;2023-04-01T09:16:05;0.67;;;0.67;;
32790;SDS011;19143;59.322;14.502;2023-04-01T09:18:41;1.07;;;0.50;;
32790;SDS011;19143;59.322;14.502;2023-04-01T09:27:05;0.47;;;0.47;;
32790;SDS011;19143;59.322;14.502;2023-04-01T09:32:42;0.50;;;0.50;;
32790;SDS011;19143;59.322;14.502;2023-04-01T09:35:24;1.00;;;0.70;;
32790;SDS011;19143;59.322;14.502;2023-04-01T09:38:00;0.37;;;0.37;;
32790;SDS011;19143;59.322;14.502;2023-04-01T09:40:34;2.93;;;0.50;;
32790;SDS011;19143;59.322;14.502;2023-04-01T09:45:52;1.57;;;0.90;;
32790;SDS011;19143;59.322;14.502;2023-04-01T09:48:24;1.27;;;0.60;;
32790;SDS011;19143;59.322;14.502;2023-04-01T09:51:01;7.50;;;0.80;;
32790;SDS011;19143;59.322;14.502;2023-04-01T09:53:35;0.70;;;0.60;;
32790;SDS011;19143;59.322;14.502;2023-04-01T09:56:19;0.50;;;0.50;;
32790;SDS011;19143;59.322;14.502;2023-04-01T09:58:58;0.40;;;0.40;;
32790;SDS011;19143;59.322;14.502;2023-04-01T10:01:42;2.03;;;0.90;;
32790;SDS011;19143;59.322;14.502;2023-04-01T10:04:31;2.30;;;0.60;;
32790;SDS011;19143;59.322;14.502;2023-04-01T10:09:55;1.43;;;0.40;;
32790;SDS011;19143;59.322;14.502;2023-04-01T10:15:37;0.47;;;0.47;;
32790;SDS011;19143;59.322;14.502;2023-04-01T10:21:12;0.87;;;0.60;;
32790;SDS011;19143;59.322;14.502;2023-04-01T10:23:56;3.20;;;0.50;;
32790;SDS011;19143;59.322;14.502;2023-04-01T10:29:37;0.43;;;0.43;;
32790;SDS011;19143;59.322;14.502;2023-04-01T10:37:52;0.83;;;0.30;;
32790;SDS011;19143;59.322;14.502;2023-04-01T10:40:42;0.43;;;0.40;;
32790;SDS011;19143;59.322;14.502;2023-04-01T10:48:55;0.83;;;0.60;;
32790;SDS011;19143;59.322;14.502;2023-04-01T10:54:25;0.63;;;0.40;;
32790;SDS011;19143;59.322;14.502;2023-04-01T10:56:55;0.93;;;0.50;;
32790;SDS011;19143;59.322;14.502;2023-04-01T10:59:42;3.50;;;0.40;;
32790;SDS011;19143;59.322;14.502;2023-04-01T11:07:57;0.30;;;0.30;;
32790;SDS011;19143;59.322;14.502;2023-04-01T11:13:38;0.37;;;0.37;;
32790;SDS011;19143;59.322;14.502;2023-04-01T11:19:09;0.30;;;0.30;;
32790;SDS011;19143;59.322;14.502;2023-04-01T11:27:11;0.30;;;0.30;;
32790;SDS011;19143;59.322;14.502;2023-04-01T11:29:45;0.37;;;0.37;;
32790;SDS011;19143;59.322;14.502;2023-04-01T11:32:19;0.40;;;0.40;;
32790;SDS011;19143;59.322;14.502;2023-04-01T11:34:55;3.93;;;0.37;;
32790;SDS011;19143;59.322;14.502;2023-04-01T11:37:29;4.23;;;0.30;;
32790;SDS011;19143;59.322;14.502;2023-04-01T11:40:01;0.37;;;0.37;;
32790;SDS011;19143;59.322;14.502;2023-04-01T11:42:35;0.30;;;0.30;;
32790;SDS011;19143;59.322;14.502;2023-04-01T11:45:10;0.30;;;0.20;;
32790;SDS011;19143;59.322;14.502;2023-04-01T11:47:44;0.30;;;0.30;;
32790;SDS011;19143;59.322;14.502;2023-04-01T11:50:15;0.93;;;0.70;;
32790;SDS011;19143;59.322;14.502;2023-04-01T11:55:33;0.30;;;0.30;;
32790;SDS011;19143;59.322;14.502;2023-04-01T12:00:54;2.30;;;0.40;;
32790;SDS011;19143;59.322;14.502;2023-04-01T12:03:29;0.93;;;0.50;;
32790;SDS011;19143;59.322;14.502;2023-04-01T12:06:02;4.80;;;0.77;;
32790;SDS011;19143;59.322;14.502;2023-04-01T12:08:33;0.60;;;0.40;;
32790;SDS011;19143;59.322;14.502;2023-04-01T12:11:05;0.30;;;0.30;;
32790;SDS011;19143;59.322;14.502;2023-04-01T12:13:36;0.57;;;0.57;;
32790;SDS011;19143;59.322;14.502;2023-04-01T12:16:13;0.97;;;0.40;;
32790;SDS011;19143;59.322;14.502;2023-04-01T12:18:42;0.57;;;0.57;;
32790;SDS011;19143;59.322;14.502;2023-04-01T12:21:15;4.13;;;0.43;;
32790;SDS011;19143;59.322;14.502;2023-04-01T12:23:57;1.10;;;0.50;;
32790;SDS011;19143;59.322;14.502;2023-04-01T12:26:31;0.63;;;0.47;;
32790;SDS011;19143;59.322;14.502;2023-04-01T12:29:06;0.73;;;0.30;;
32790;SDS011;19143;59.322;14.502;2023-04-01T12:31:37;0.17;;;0.17;;
32790;SDS011;19143;59.322;14.502;2023-04-01T12:34:13;3.50;;;0.40;;
32790;SDS011;19143;59.322;14.502;2023-04-01T12:36:49;0.30;;;0.27;;
32790;SDS011;19143;59.322;14.502;2023-04-01T12:42:12;0.67;;;0.40;;
32790;SDS011;19143;59.322;14.502;2023-04-01T12:44:47;0.60;;;0.40;;
32790;SDS011;19143;59.322;14.502;2023-04-01T12:47:29;3.30;;;0.30;;
32790;SDS011;19143;59.322;14.502;2023-04-01T12:52:49;0.70;;;0.30;;
32790;SDS011;19143;59.322;14.502;2023-04-01T12:55:40;0.83;;;0.40;;
32790;SDS011;19143;59.322;14.502;2023-04-01T13:01:05;2.07;;;0.53;;
32790;SDS011;19143;59.322;14.502;2023-04-01T13:03:44;2.17;;;0.20;;
32790;SDS011;19143;59.322;14.502;2023-04-01T13:06:24;0.30;;;0.20;;
32790;SDS011;19143;59.322;14.502;2023-04-01T13:09:16;0.30;;;0.30;;
32790;SDS011;19143;59.322;14.502;2023-04-01T13:11:51;2.63;;;0.27;;
32790;SDS011;19143;59.322;14.502;2023-04-01T13:17:11;0.77;;;0.30;;
32790;SDS011;19143;59.322;14.502;2023-04-01T13:19:42;0.40;;;0.40;;
32790;SDS011;19143;59.322;14.502;2023-04-01T13:22:14;0.67;;;0.10;;
32790;SDS011;19143;59.322;14.502;2023-04-01T13:24:45;3.53;;;0.53;;
32790;SDS011;19143;59.322;14.502;2023-04-01T13:27:17;0.30;;;0.30;;
32790;SDS011;19143;59.322;14.502;2023-04-01T13:29:57;0.57;;;0.40;;
32790;SDS011;19143;59.322;14.502;2023-04-01T13:32:29;0.97;;;0.50;;
32790;SDS011;19143;59.322;14.502;2023-04-01T13:35:03;0.40;;;0.40;;
32790;SDS011;19143;59.322;14.502;2023-04-01T13:37:36;0.40;;;0.40;;
32790;SDS011;19143;59.322;14.502;2023-04-01T13:40:15;1.83;;;0.50;;
32790;SDS011;19143;59.322;14.502;2023-04-01T13:42:48;0.60;;;0.60;;
32790;SDS011;19143;59.322;14.502;2023-04-01T13:45:18;0.50;;;0.40;;
32790;SDS011;19143;59.322;14.502;2023-04-01T13:47:58;0.77;;;0.57;;
32790;SDS011;19143;59.322;14.502;2023-04-01T13:50:43;0.40;;;0.40;;
32790;SDS011;19143;59.322;14.502;2023-04-01T13:53:17;0.30;;;0.30;;
32790;SDS011;19143;59.322;14.502;2023-04-01T13:55:49;3.20;;;0.60;;
32790;SDS011;19143;59.322;14.502;2023-04-01T14:01:09;0.83;;;0.43;;
32790;SDS011;19143;59.322;14.502;2023-04-01T14:06:23;0.93;;;0.50;;
32790;SDS011;19143;59.322;14.502;2023-04-01T14:08:58;3.50;;;0.40;;
32790;SDS011;19143;59.322;14.502;2023-04-01T14:11:33;5.10;;;0.30;;
32790;SDS011;19143;59.322;14.502;2023-04-01T14:14:04;0.67;;;0.63;;
32790;SDS011;19143;59.322;14.502;2023-04-01T14:19:23;2.80;;;0.60;;
32790;SDS011;19143;59.322;14.502;2023-04-01T14:21:56;1.37;;;0.40;;
32790;SDS011;19143;59.322;14.502;2023-04-01T14:24:40;0.80;;;0.30;;
32790;SDS011;19143;59.322;14.502;2023-04-01T14:27:19;0.60;;;0.60;;
32790;SDS011;19143;59.322;14.502;2023-04-01T14:29:53;2.20;;;0.43;;
32790;SDS011;19143;59.322;14.502;2023-04-01T14:32:24;0.20;;;0.20;;
32790;SDS011;19143;59.322;14.502;2023-04-01T14:34:58;0.30;;;0.30;;
32790;SDS011;19143;59.322;14.502;2023-04-01T14:37:34;0.70;;;0.40;;
32790;SDS011;19143;59.322;14.502;2023-04-01T14:40:20;0.83;;;0.60;;
32790;SDS011;19143;59.322;14.502;2023-04-01T14:42:55;3.10;;;0.60;;
32790;SDS011;19143;59.322;14.502;2023-04-01T14:45:30;0.73;;;0.47;;
32790;SDS011;19143;59.322;14.502;2023-04-01T14:47:59;0.60;;;0.60;;
32790;SDS011;19143;59.322;14.502;2023-04-01T14:50:40;0.67;;;0.67;;
32790;SDS011;19143;59.322;14.502;2023-04-01T14:53:13;0.40;;;0.40;;
32790;SDS011;19143;59.322;14.502;2023-04-01T14:55:48;1.30;;;0.40;;
32790;SDS011;19143;59.322;14.502;2023-04-01T14:58:16;0.40;;;0.40;;
32790;SDS011;19143;59.322;14.502;2023-04-01T15:00:47;1.30;;;1.30;;
32790;SDS011;19143;59.322;14.502;2023-04-01T15:03:17;0.53;;;0.53;;
32790;SDS011;19143;59.322;14.502;2023-04-01T15:05:46;0.83;;;0.60;;
32790;SDS011;19143;59.322;14.502;2023-04-01T15:08:19;0.40;;;0.40;;
32790;SDS011;19143;59.322;14.502;2023-04-01T15:13:51;0.97;;;0.73;;
32790;SDS011;19143;59.322;14.502;2023-04-01T15:16:22;1.27;;;0.40;;
32790;SDS011;19143;59.322;14.502;2023-04-01T15:18:53;0.63;;;0.50;;
32790;SDS011;19143;59.322;14.502;2023-04-01T15:24:14;0.60;;;0.60;;
32790;SDS011;19143;59.322;14.502;2023-04-01T15:32:27;0.87;;;0.50;;
32790;SDS011;19143;59.322;14.502;2023-04-01T15:35:03;0.60;;;0.60;;
32790;SDS011;19143;59.322;14.502;2023-04-01T15:37:37;0.67;;;0.50;;
32790;SDS011;19143;59.322;14.502;2023-04-01T15:45:54;3.23;;;0.70;;
32790;SDS011;19143;59.322;14.502;2023-04-01T15:48:28;0.57;;;0.40;;
32790;SDS011;19143;59.322;14.502;2023-04-01T15:51:01;0.60;;;0.57;;
32790;SDS011;19143;59.322;14.502;2023-04-01T15:53:45;5.33;;;0.90;;
32790;SDS011;19143;59.322;14.502;2023-04-01T15:56:19;0.83;;;0.63;;
32790;SDS011;19143;59.322;14.502;2023-04-01T15:58:54;0.80;;;0.60;;
32790;SDS011;19143;59.322;14.502;2023-04-01T16:01:28;1.67;;;0.90;;
32790;SDS011;19143;59.322;14.502;2023-04-01T16:03:59;0.50;;;0.50;;
32790;SDS011;19143;59.322;14.502;2023-04-01T16:06:45;0.60;;;0.60;;
32790;SDS011;19143;59.322;14.502;2023-04-01T16:09:18;1.43;;;0.50;;
32790;SDS011;19143;59.322;14.502;2023-04-01T16:11:51;0.67;;;0.40;;
32790;SDS011;19143;59.322;14.502;2023-04-01T16:14:25;0.43;;;0.43;;
32790;SDS011;19143;59.322;14.502;2023-04-01T16:19:44;0.50;;;0.50;;
32790;SDS011;19143;59.322;14.502;2023-04-01T16:22:12;2.13;;;1.20;;
32790;SDS011;19143;59.322;14.502;2023-04-01T16:24:40;0.90;;;0.77;;
32790;SDS011;19143;59.322;14.502;2023-04-01T16:27:11;6.20;;;0.70;;
32790;SDS011;19143;59.322;14.502;2023-04-01T16:29:41;0.37;;;0.30;;
32790;SDS011;19143;59.322;14.502;2023-04-01T16:32:21;3.80;;;0.50;;
32790;SDS011;19143;59.322;14.502;2023-04-01T16:34:56;1.17;;;0.60;;
32790;SDS011;19143;59.322;14.502;2023-04-01T16:37:28;2.53;;;0.80;;
32790;SDS011;19143;59.322;14.502;2023-04-01T16:40:01;0.47;;;0.47;;
32790;SDS011;19143;59.322;14.502;2023-04-01T16:42:31;0.73;;;0.73;;
32790;SDS011;19143;59.322;14.502;2023-04-01T16:45:02;1.07;;;0.70;;
32790;SDS011;19143;59.322;14.502;2023-04-01T16:47:35;9.13;;;0.90;;
32790;SDS011;19143;59.322;14.502;2023-04-01T16:50:11;0.80;;;0.80;;
32790;SDS011;19143;59.322;14.502;2023-04-01T16:52:43;3.33;;;1.10;;